Time;durP1;ratioP1;P1;durP2;ratioP2;P2;SDS_P1;SDS_P2;PMS_P1;PMS_P2;Temp;Humidity;BMP_temperature;BMP_pressure;BME280_temperature;BME280_humidity;BME280_pressure;Samples;Min_cycle;Max_cycle;Signal;HPM_P1;HPM_P2
2021/04/08 00:02:26;;;;;;;7.60;1.73;;;2.00;94.60;;;;;;4799135;29;20069;-76
2021/04/08 00:04:52;;;;;;;7.07;1.98;;;2.00;94.80;;;;;;4802697;29;20884;-75
2021/04/08 00:07:19;;;;;;;8.63;2.00;;;2.00;94.80;;;;;;4801924;29;20507;-76
2021/04/08 00:09:46;;;;;;;3.17;1.38;;;2.00;95.20;;;;;;4784831;29;20054;-76
2021/04/08 00:12:12;;;;;;;5.57;1.95;;;1.90;95.30;;;;;;4792625;29;20051;-76
2021/04/08 00:14:39;;;;;;;6.00;1.73;;;2.00;95.30;;;;;;4789241;29;20055;-76
2021/04/08 00:17:05;;;;;;;5.80;2.35;;;2.00;95.10;;;;;;4790074;29;20058;-76
2021/04/08 00:19:32;;;;;;;5.75;2.28;;;2.00;95.10;;;;;;4774545;29;20198;-76
2021/04/08 00:21:59;;;;;;;5.75;1.98;;;2.00;94.90;;;;;;4773074;29;20058;-76
2021/04/08 00:24:25;;;;;;;8.75;2.50;;;2.10;94.80;;;;;;4773030;29;20047;-76
2021/04/08 00:26:52;;;;;;;4.50;2.33;;;2.00;94.60;;;;;;4788210;29;20055;-76
2021/04/08 00:29:18;;;;;;;5.13;2.17;;;2.00;94.70;;;;;;4787733;29;20118;-76
2021/04/08 00:31:45;;;;;;;6.38;1.92;;;2.00;94.80;;;;;;4789827;29;20055;-76
2021/04/08 00:34:11;;;;;;;5.40;2.08;;;2.00;94.70;;;;;;4792230;29;20759;-76
2021/04/08 00:36:38;;;;;;;6.00;1.80;;;2.00;94.50;;;;;;4793968;29;20058;-76
2021/04/08 00:39:05;;;;;;;4.78;1.80;;;2.00;94.50;;;;;;4784018;29;20039;-76
2021/04/08 00:41:35;;;;;;;9.25;2.50;;;2.00;94.30;;;;;;4787843;29;20046;-76
2021/04/08 00:44:02;;;;;;;7.47;2.35;;;1.90;94.00;;;;;;4797773;29;20129;-76
2021/04/08 00:46:29;;;;;;;5.57;1.77;;;1.80;93.90;;;;;;4795336;29;20051;-76
2021/04/08 00:48:56;;;;;;;5.38;1.95;;;1.90;94.30;;;;;;4797502;29;20049;-76
2021/04/08 00:51:24;;;;;;;8.32;1.50;;;1.80;94.20;;;;;;4787701;29;20050;-76
2021/04/08 00:53:54;;;;;;;7.07;2.10;;;1.90;94.30;;;;;;4785820;29;20045;-76
2021/04/08 00:56:21;;;;;;;4.82;1.85;;;1.80;94.10;;;;;;4791116;29;20577;-76
2021/04/08 00:58:50;;;;;;;4.93;2.00;;;1.90;94.20;;;;;;4772985;30;20062;-76
2021/04/08 01:01:17;;;;;;;4.80;1.52;;;1.90;93.80;;;;;;4794669;29;20142;-76
2021/04/08 01:03:44;;;;;;;5.57;1.95;;;1.80;93.70;;;;;;4797293;29;20135;-76
2021/04/08 01:06:11;;;;;;;4.60;1.92;;;1.90;93.40;;;;;;4791680;29;20054;-76
2021/04/08 01:08:38;;;;;;;3.55;1.40;;;1.80;93.00;;;;;;4783070;29;20491;-76
2021/04/08 01:11:05;;;;;;;8.50;2.08;;;1.80;93.00;;;;;;4794670;29;20038;-76
2021/04/08 01:13:34;;;;;;;5.07;2.08;;;1.90;92.60;;;;;;4790488;29;20038;-76
2021/04/08 01:16:07;;;;;;;5.82;1.55;;;1.80;92.40;;;;;;4786573;29;20058;-76
2021/04/08 01:18:45;;;;;;;;;;;1.80;92.20;;;;;;4786650;29;20064;-76
2021/04/08 01:21:26;;;;;;;3.28;1.05;;;1.70;92.20;;;;;;4801838;29;19967;-76
2021/04/08 01:24:17;;;;;;;10.25;1.70;;;1.70;92.20;;;;;;4787519;29;20046;-76
2021/04/08 01:26:55;;;;;;;6.20;1.35;;;1.60;92.20;;;;;;4801160;29;20055;-76
2021/04/08 01:29:47;;;;;;;3.83;1.02;;;1.60;92.40;;;;;;4797858;29;20050;-76
2021/04/08 01:32:16;;;;;;;3.45;1.13;;;1.60;92.30;;;;;;4788018;29;20084;-76
2021/04/08 01:34:45;;;;;;;5.75;1.38;;;1.70;92.30;;;;;;4788551;29;20103;-76
2021/04/08 01:37:16;;;;;;;4.82;1.52;;;1.70;92.10;;;;;;4794156;29;20137;-76
2021/04/08 01:39:45;;;;;;;2.75;1.10;;;1.60;92.10;;;;;;4785373;29;20053;-76
2021/04/08 01:42:13;;;;;;;6.60;1.20;;;1.70;92.10;;;;;;4786308;29;20051;-76
2021/04/08 01:44:41;;;;;;;3.15;1.10;;;1.70;91.90;;;;;;4788347;29;20051;-76
2021/04/08 01:47:10;;;;;;;6.07;1.42;;;1.70;91.70;;;;;;4788708;29;20070;-76
2021/04/08 01:49:42;;;;;;;2.17;0.68;;;1.80;91.70;;;;;;4789001;29;20068;-76
2021/04/08 01:52:15;;;;;;;4.22;1.05;;;1.80;91.60;;;;;;4780075;29;20048;-76
2021/04/08 01:54:45;;;;;;;2.45;1.20;;;1.80;91.80;;;;;;4800554;29;20054;-76
2021/04/08 01:57:13;;;;;;;2.88;1.30;;;1.90;91.40;;;;;;4770873;29;20059;-76
2021/04/08 01:59:43;;;;;;;3.90;1.27;;;1.90;91.40;;;;;;4789618;29;20133;-76
2021/04/08 02:02:11;;;;;;;4.30;1.30;;;1.90;91.60;;;;;;4792074;29;20058;-76
2021/04/08 02:04:39;;;;;;;2.97;1.02;;;2.00;91.40;;;;;;4803802;29;20062;-77
2021/04/08 02:07:07;;;;;;;3.13;0.88;;;1.90;91.20;;;;;;4791952;29;20062;-76
2021/04/08 02:09:37;;;;;;;4.05;1.20;;;1.90;91.40;;;;;;4810591;29;20101;-76
2021/04/08 02:12:09;;;;;;;4.07;0.90;;;2.00;91.40;;;;;;4803002;29;20050;-76
2021/04/08 02:14:40;;;;;;;4.18;1.05;;;2.10;90.80;;;;;;4786355;29;20066;-76
2021/04/08 02:17:08;;;;;;;5.97;1.02;;;2.00;90.60;;;;;;4790886;29;20656;-76
2021/04/08 02:19:37;;;;;;;4.47;1.27;;;2.00;90.50;;;;;;4796079;29;20055;-76
2021/04/08 02:22:05;;;;;;;4.78;1.40;;;1.90;90.50;;;;;;4792573;29;20057;-76
2021/04/08 02:24:33;;;;;;;4.05;1.20;;;1.80;90.80;;;;;;4792035;29;20047;-76
2021/04/08 02:27:01;;;;;;;3.78;1.17;;;1.90;90.80;;;;;;4791735;29;20051;-76
2021/04/08 02:29:29;;;;;;;5.50;1.38;;;1.70;91.00;;;;;;4808471;29;20058;-76
2021/04/08 02:31:56;;;;;;;3.10;1.08;;;1.80;90.90;;;;;;4792116;29;20046;-76
2021/04/08 02:34:23;;;;;;;5.15;1.40;;;1.70;90.90;;;;;;4788195;29;20130;-76
2021/04/08 02:36:49;;;;;;;4.25;1.13;;;1.70;91.20;;;;;;4801894;29;20530;-77
2021/04/08 02:39:16;;;;;;;3.60;1.33;;;1.70;91.10;;;;;;4788679;29;20722;-77
2021/04/08 02:41:47;;;;;;;3.63;1.15;;;1.80;90.70;;;;;;4798718;29;20109;-76
2021/04/08 02:44:14;;;;;;;3.80;1.38;;;1.80;90.70;;;;;;4804495;29;20377;-76
2021/04/08 02:46:40;;;;;;;3.97;1.23;;;1.90;90.70;;;;;;4807364;29;20050;-76
2021/04/08 02:49:08;;;;;;;3.00;1.00;;;1.70;90.80;;;;;;4792371;29;20111;-76
2021/04/08 02:51:48;;;;;;;5.97;1.17;;;1.60;91.10;;;;;;4774807;29;20491;-76
2021/04/08 02:54:38;;;;;;;2.72;1.10;;;1.70;91.10;;;;;;4801006;29;20062;-76
2021/04/08 02:57:06;;;;;;;5.78;1.45;;;1.70;90.90;;;;;;4796398;29;20137;-77
2021/04/08 02:59:43;;;;;;;3.50;1.52;;;1.60;91.00;;;;;;4791132;29;20038;-77
2021/04/08 03:02:16;;;;;;;6.13;1.67;;;1.60;91.10;;;;;;4785583;29;20062;-76
2021/04/08 03:04:46;;;;;;;;;;;1.50;91.40;;;;;;4780060;29;20583;-76
2021/04/08 03:07:17;;;;;;;5.03;1.10;;;1.60;91.50;;;;;;4789050;29;19926;-76
2021/04/08 03:09:44;;;;;;;2.88;0.75;;;1.60;91.20;;;;;;4791483;29;20047;-76
2021/04/08 03:12:14;;;;;;;3.13;1.15;;;1.60;91.00;;;;;;4789903;29;20507;-75
2021/04/08 03:14:47;;;;;;;4.00;1.35;;;1.50;90.90;;;;;;4794007;29;20051;-76
2021/04/08 03:17:17;;;;;;;4.38;1.00;;;1.50;91.10;;;;;;4811767;29;20111;-76
2021/04/08 03:19:46;;;;;;;3.08;1.13;;;1.40;91.20;;;;;;4800126;29;20543;-76
2021/04/08 03:22:14;;;;;;;4.88;1.08;;;1.30;91.30;;;;;;4791861;29;20057;-76
2021/04/08 03:24:42;;;;;;;2.67;1.17;;;1.40;91.30;;;;;;4774760;29;20084;-76
2021/04/08 03:27:10;;;;;;;3.95;1.15;;;1.40;91.40;;;;;;4772182;29;20146;-76
2021/04/08 03:29:40;;;;;;;5.88;1.08;;;1.40;91.20;;;;;;4786163;29;20054;-76
2021/04/08 03:32:09;;;;;;;0.00;0.00;;;1.50;91.50;;;;;;4789748;29;20039;-76
2021/04/08 03:34:37;;;;;;;0.00;0.00;;;1.50;91.20;;;;;;4790365;29;20399;-76
2021/04/08 03:37:04;;;;;;;0.00;0.00;;;1.50;91.00;;;;;;4798387;29;20043;-76
2021/04/08 03:39:31;;;;;;;0.00;0.00;;;1.50;91.00;;;;;;4787991;29;20134;-76
2021/04/08 03:41:58;;;;;;;0.00;0.00;;;1.50;90.90;;;;;;4785482;29;20508;-76
2021/04/08 03:44:25;;;;;;;0.00;0.00;;;1.60;90.80;;;;;;4804621;29;20395;-76
2021/04/08 03:46:57;;;;;;;0.00;0.00;;;1.80;90.70;;;;;;4790064;29;20039;-76
2021/04/08 03:49:26;;;;;;;0.00;0.00;;;1.60;90.70;;;;;;4800224;29;20047;-76
2021/04/08 03:51:54;;;;;;;0.00;0.00;;;1.60;90.90;;;;;;4798164;29;20039;-77
2021/04/08 03:54:22;;;;;;;11.25;2.00;;;1.70;90.60;;;;;;4799024;29;20051;-76
2021/04/08 03:56:51;;;;;;;1.90;0.98;;;1.70;90.50;;;;;;4790343;29;20419;-76
2021/04/08 03:59:19;;;;;;;9.18;1.45;;;1.60;90.70;;;;;;4805008;29;20046;-76
2021/04/08 04:01:47;;;;;;;6.50;1.35;;;1.70;90.80;;;;;;4782734;29;20051;-76
2021/04/08 04:04:15;;;;;;;4.00;1.35;;;1.90;90.40;;;;;;4780055;30;20055;-76
2021/04/08 04:06:44;;;;;;;5.30;2.53;;;1.90;90.70;;;;;;4802465;29;20089;-76
2021/04/08 04:09:13;;;;;;;7.10;2.15;;;2.00;90.50;;;;;;4786224;29;20047;-76
2021/04/08 04:11:43;;;;;;;7.22;1.70;;;2.10;90.20;;;;;;4802568;29;20053;-76
2021/04/08 04:14:15;;;;;;;4.20;1.77;;;2.00;90.40;;;;;;4792668;29;20108;-76
2021/04/08 04:16:47;;;;;;;5.63;1.60;;;1.80;90.80;;;;;;4796392;29;20065;-76
2021/04/08 04:19:14;;;;;;;7.72;2.85;;;1.80;91.10;;;;;;4779007;29;20544;-76
2021/04/08 04:21:41;;;;;;;8.45;2.33;;;1.90;91.30;;;;;;4775338;29;20070;-76
2021/04/08 04:24:18;;;;;;;139.10;33.33;;;1.90;91.50;;;;;;4784164;29;20522;-76
2021/04/08 04:26:45;;;;;;;16.75;6.28;;;2.30;91.60;;;;;;4790535;29;20437;-76
2021/04/08 04:29:12;;;;;;;8.25;2.40;;;2.00;91.40;;;;;;4801322;29;20389;-76
2021/04/08 04:31:39;;;;;;;5.50;2.13;;;2.10;91.20;;;;;;4793786;29;20603;-76
2021/04/08 04:34:07;;;;;;;9.95;3.58;;;2.10;91.10;;;;;;4783903;29;20055;-76
2021/04/08 04:36:34;;;;;;;5.22;2.15;;;2.10;91.40;;;;;;4795011;29;20059;-76
2021/04/08 04:39:04;;;;;;;6.65;2.13;;;2.00;91.40;;;;;;4771027;29;20058;-76
2021/04/08 04:41:31;;;;;;;4.80;1.92;;;2.00;91.30;;;;;;4794773;29;20069;-76
2021/04/08 04:43:57;;;;;;;78.22;28.15;;;2.00;91.30;;;;;;4790116;29;20411;-76
2021/04/08 04:46:24;;;;;;;126.28;41.40;;;2.10;91.20;;;;;;4783778;29;20057;-76
2021/04/08 04:48:52;;;;;;;28.88;9.65;;;2.10;91.10;;;;;;4785411;29;20111;-76
2021/04/08 04:51:18;;;;;;;56.33;24.02;;;2.10;91.30;;;;;;4786866;30;20496;-76
2021/04/08 04:53:45;;;;;;;17.33;6.45;;;2.00;91.40;;;;;;4786545;29;20419;-76
2021/04/08 04:56:11;;;;;;;14.10;6.10;;;2.00;91.60;;;;;;4775221;29;20055;-76
2021/04/08 04:58:38;;;;;;;8.27;4.05;;;2.10;91.70;;;;;;4788688;29;20104;-76
2021/04/08 05:01:05;;;;;;;6.57;2.92;;;2.20;91.60;;;;;;4789277;29;20547;-76
2021/04/08 05:03:31;;;;;;;5.32;1.70;;;2.20;91.40;;;;;;4771880;30;20059;-76
2021/04/08 05:05:58;;;;;;;8.85;2.75;;;2.20;91.70;;;;;;4779577;29;20049;-76
2021/04/08 05:08:24;;;;;;;10.38;4.90;;;2.20;92.50;;;;;;4803312;29;20039;-76
2021/04/08 05:10:51;;;;;;;7.85;4.05;;;2.30;93.80;;;;;;4809749;29;20038;-76
2021/04/08 05:13:17;;;;;;;6.45;3.38;;;2.30;95.50;;;;;;4788238;29;20046;-76
2021/04/08 05:15:48;;;;;;;5.32;2.92;;;2.30;96.50;;;;;;4791916;29;20047;-76
2021/04/08 05:18:15;;;;;;;19.13;10.00;;;2.40;97.00;;;;;;4782390;29;20051;-76
2021/04/08 05:20:42;;;;;;;9.23;4.78;;;2.50;97.70;;;;;;4772569;29;20411;-77
2021/04/08 05:23:09;;;;;;;5.95;2.08;;;2.60;98.10;;;;;;4790786;29;20055;-76
2021/04/08 05:25:36;;;;;;;3.92;2.25;;;2.60;98.60;;;;;;4785885;29;20568;-76
2021/04/08 05:28:03;;;;;;;6.82;1.70;;;2.60;99.70;;;;;;4775220;29;20079;-76
2021/04/08 05:30:29;;;;;;;5.95;1.23;;;2.60;99.90;;;;;;4801633;29;20478;-76
2021/04/08 05:32:56;;;;;;;5.47;2.38;;;2.60;99.90;;;;;;4781092;29;20043;-77
2021/04/08 05:35:22;;;;;;;7.30;2.40;;;2.50;99.90;;;;;;4789420;29;20618;-76
2021/04/08 05:37:49;;;;;;;4.40;1.75;;;2.50;99.90;;;;;;4795260;29;20051;-76
2021/04/08 05:40:16;;;;;;;3.20;1.35;;;2.50;99.90;;;;;;4787629;29;20067;-76
2021/04/08 05:42:44;;;;;;;3.58;1.23;;;2.40;99.90;;;;;;4788684;29;20044;-76
2021/04/08 05:45:12;;;;;;;6.78;2.88;;;2.50;99.90;;;;;;4778765;29;20047;-77
2021/04/08 05:47:39;;;;;;;7.57;3.50;;;2.60;99.90;;;;;;4796858;29;20047;-77
2021/04/08 05:50:09;;;;;;;12.98;6.38;;;2.60;99.90;;;;;;4789026;29;20604;-76
2021/04/08 05:52:36;;;;;;;20.45;14.18;;;2.70;99.90;;;;;;4786438;29;20043;-76
2021/04/08 05:55:03;;;;;;;9.93;5.97;;;2.80;99.90;;;;;;4789043;29;20066;-77
2021/04/08 05:57:30;;;;;;;5.40;3.38;;;2.70;99.90;;;;;;4804375;29;20051;-76
2021/04/08 05:59:56;;;;;;;12.10;7.60;;;2.80;99.90;;;;;;4797593;29;20047;-76
2021/04/08 06:02:30;;;;;;;5.05;2.33;;;2.80;99.90;;;;;;4789017;29;20422;-77
2021/04/08 06:04:57;;;;;;;4.20;1.38;;;2.80;99.90;;;;;;4779904;29;20058;-75
2021/04/08 06:07:23;;;;;;;5.03;1.73;;;2.80;99.90;;;;;;4785582;29;20137;-75
2021/04/08 06:09:50;;;;;;;4.28;1.70;;;2.90;99.90;;;;;;4797549;29;20097;-75
2021/04/08 06:12:18;;;;;;;3.10;1.02;;;3.00;99.90;;;;;;4797696;29;20047;-75
2021/04/08 06:14:47;;;;;;;9.07;1.50;;;3.10;99.90;;;;;;4779731;29;20041;-75
2021/04/08 06:17:13;;;;;;;3.15;1.20;;;3.20;99.90;;;;;;4800533;29;20042;-75
2021/04/08 06:19:40;;;;;;;5.80;2.70;;;3.30;99.90;;;;;;4784414;29;20058;-75
2021/04/08 06:22:06;;;;;;;4.43;1.60;;;3.40;99.90;;;;;;4794862;29;20039;-75
2021/04/08 06:24:33;;;;;;;5.95;1.88;;;3.50;99.90;;;;;;4784580;29;20053;-75
2021/04/08 06:26:59;;;;;;;5.40;3.17;;;3.70;99.90;;;;;;4770172;29;20044;-75
2021/04/08 06:29:26;;;;;;;5.20;2.20;;;3.70;99.90;;;;;;4800437;29;20111;-75
2021/04/08 06:31:53;;;;;;;6.68;2.25;;;3.80;99.90;;;;;;4792430;29;20047;-75
2021/04/08 06:34:20;;;;;;;2.45;1.63;;;3.80;99.90;;;;;;4784733;29;20051;-76
2021/04/08 06:36:46;;;;;;;4.55;2.03;;;3.80;99.90;;;;;;4798470;29;20047;-76
2021/04/08 06:39:13;;;;;;;4.80;1.90;;;3.80;99.90;;;;;;4798094;29;20069;-75
2021/04/08 06:41:40;;;;;;;8.88;4.28;;;3.70;99.90;;;;;;4791256;29;20511;-76
2021/04/08 06:44:09;;;;;;;14.55;9.23;;;3.60;99.90;;;;;;4801112;29;20046;-75
2021/04/08 06:46:42;;;;;;;4.90;3.28;;;3.60;99.90;;;;;;4786268;29;20141;-75
2021/04/08 06:49:36;;;;;;;2.42;1.70;;;3.60;99.90;;;;;;4804128;29;20428;-75
2021/04/08 06:52:05;;;;;;;3.85;0.98;;;3.60;99.90;;;;;;4797885;29;20480;-75
2021/04/08 06:54:37;;;;;;;3.53;1.63;;;3.70;99.90;;;;;;4803011;29;20061;-75
2021/04/08 06:57:05;;;;;;;2.33;1.10;;;3.60;99.90;;;;;;4787411;29;20100;-75
2021/04/08 06:59:32;;;;;;;2.55;1.15;;;3.70;99.90;;;;;;4790529;29;20061;-76
2021/04/08 07:01:59;;;;;;;3.17;1.45;;;3.70;99.90;;;;;;4802200;29;20070;-76
2021/04/08 07:04:27;;;;;;;4.50;1.30;;;3.90;99.90;;;;;;4784548;29;20059;-75
2021/04/08 07:06:53;;;;;;;6.32;1.40;;;4.00;99.90;;;;;;4802670;29;20065;-75
2021/04/08 07:09:20;;;;;;;3.20;1.80;;;4.10;99.90;;;;;;4788943;29;20151;-75
2021/04/08 07:11:46;;;;;;;4.53;2.05;;;4.10;99.90;;;;;;4796347;29;20062;-75
2021/04/08 07:14:15;;;;;;;4.47;1.92;;;4.20;99.90;;;;;;4802783;29;20057;-76
2021/04/08 07:16:41;;;;;;;4.00;1.70;;;4.10;99.90;;;;;;4800588;29;20632;-75
2021/04/08 07:19:08;;;;;;;4.57;1.63;;;4.10;99.90;;;;;;4794776;29;20059;-75
2021/04/08 07:21:39;;;;;;;4.15;1.70;;;4.20;99.90;;;;;;4807164;29;20494;-75
2021/04/08 07:24:17;;;;;;;4.85;2.33;;;4.20;99.90;;;;;;4798756;29;20069;-76
2021/04/08 07:26:54;;;;;;;4.03;1.88;;;4.60;99.90;;;;;;4791950;29;20047;-75
2021/04/08 07:29:23;;;;;;;4.53;1.65;;;4.90;99.90;;;;;;4785366;29;20406;-75
2021/04/08 07:31:50;;;;;;;6.18;3.00;;;5.00;99.90;;;;;;4804079;29;20042;-75
2021/04/08 07:34:36;;;;;;;5.75;2.60;;;5.20;99.90;;;;;;4797974;29;20031;-75
2021/04/08 07:37:04;;;;;;;4.68;2.22;;;5.40;99.90;;;;;;4788525;29;20538;-76
2021/04/08 07:39:40;;;;;;;6.70;3.72;;;5.50;99.90;;;;;;4789427;29;20058;-75
2021/04/08 07:42:24;;;;;;;5.03;2.20;;;5.10;99.70;;;;;;4788193;29;20054;-76
2021/04/08 07:44:53;;;;;;;3.47;1.60;;;5.10;99.90;;;;;;4782268;29;20087;-75
2021/04/08 07:47:32;;;;;;;4.50;1.90;;;5.20;99.90;;;;;;4803072;29;20173;-75
2021/04/08 07:50:19;;;;;;;4.28;2.03;;;5.30;99.70;;;;;;4791016;29;20055;-75
2021/04/08 07:52:48;;;;;;;4.68;2.00;;;5.40;98.90;;;;;;4773621;29;20047;-75
2021/04/08 07:55:23;;;;;;;8.60;4.18;;;5.50;98.80;;;;;;4808072;29;20331;-75
2021/04/08 07:57:53;;;;;;;4.25;1.98;;;5.70;99.00;;;;;;4802679;29;20046;-75
2021/04/08 08:00:30;;;;;;;5.85;2.60;;;5.90;97.40;;;;;;4787683;29;20070;-75
2021/04/08 08:02:59;;;;;;;4.65;1.83;;;6.10;97.30;;;;;;4783858;29;20043;-75
2021/04/08 08:05:47;;;;;;;4.15;1.77;;;6.20;96.60;;;;;;4788050;29;20108;-76
2021/04/08 08:08:22;;;;;;;4.72;2.03;;;6.40;95.70;;;;;;4803054;29;20130;-75
2021/04/08 08:10:55;;;;;;;4.70;1.77;;;6.30;94.40;;;;;;4786811;29;20050;-75
2021/04/08 08:13:39;;;;;;;3.55;1.67;;;6.50;93.60;;;;;;4800635;29;20563;-75
2021/04/08 08:16:06;;;;;;;4.13;1.98;;;6.60;93.20;;;;;;4796412;29;20133;-75
2021/04/08 08:18:41;;;;;;;3.65;1.55;;;6.90;91.60;;;;;;4803022;29;20058;-75
2021/04/08 08:21:12;;;;;;;3.88;1.65;;;6.90;88.80;;;;;;4796518;29;20150;-75
2021/04/08 08:23:44;;;;;;;3.38;1.58;;;7.10;89.60;;;;;;4778798;29;20061;-75
2021/04/08 08:26:29;;;;;;;3.05;1.65;;;7.20;89.10;;;;;;4803267;29;20039;-75
2021/04/08 08:29:09;;;;;;;3.78;1.38;;;7.30;87.30;;;;;;4784394;29;20136;-75
2021/04/08 08:31:41;;;;;;;7.57;1.30;;;7.10;81.30;;;;;;4791465;29;20058;-75
2021/04/08 08:34:17;;;;;;;3.03;1.42;;;7.10;83.30;;;;;;4790002;29;20043;-76
2021/04/08 08:36:47;;;;;;;2.33;0.90;;;7.20;83.70;;;;;;4788595;29;20055;-75
2021/04/08 08:39:17;;;;;;;2.58;1.55;;;7.30;81.60;;;;;;4794860;29;20062;-75
2021/04/08 08:41:45;;;;;;;2.92;1.25;;;7.50;80.30;;;;;;4787887;29;20070;-75
2021/04/08 08:44:14;;;;;;;4.68;1.15;;;7.70;79.90;;;;;;4786967;29;20536;-75
2021/04/08 08:47:06;;;;;;;2.95;1.52;;;7.70;79.60;;;;;;4785473;30;20051;-75
2021/04/08 08:49:38;;;;;;;4.47;1.98;;;7.90;77.20;;;;;;4791745;29;20480;-74
2021/04/08 08:52:06;;;;;;;4.80;1.60;;;7.80;78.00;;;;;;4801699;29;20054;-75
2021/04/08 08:54:33;;;;;;;3.53;1.63;;;7.80;77.00;;;;;;4790320;29;20461;-75
2021/04/08 08:57:02;;;;;;;75.22;12.70;;;7.70;76.10;;;;;;4801452;29;20087;-75
2021/04/08 08:59:29;;;;;;;8.27;3.55;;;7.70;75.70;;;;;;4783890;29;20047;-74
2021/04/08 09:01:57;;;;;;;3.30;1.42;;;7.50;75.20;;;;;;4778239;29;20053;-74
2021/04/08 09:04:24;;;;;;;2.55;1.30;;;7.70;74.50;;;;;;4785193;29;20514;-75
2021/04/08 09:06:58;;;;;;;4.45;1.88;;;7.60;73.90;;;;;;4791392;29;20057;-75
2021/04/08 09:09:27;;;;;;;15.07;5.45;;;7.20;74.60;;;;;;4786760;29;20134;-74
2021/04/08 09:11:54;;;;;;;5.95;2.05;;;7.10;76.50;;;;;;4812471;29;20072;-75
2021/04/08 09:14:22;;;;;;;17.67;5.57;;;7.30;76.50;;;;;;4787033;29;20104;-75
2021/04/08 09:16:51;;;;;;;10.23;3.65;;;7.30;77.30;;;;;;4797503;29;20444;-75
2021/04/08 09:19:29;;;;;;;6.28;2.97;;;7.70;77.50;;;;;;4782981;29;20059;-75
2021/04/08 09:21:58;;;;;;;6.38;2.50;;;8.00;75.80;;;;;;4782978;29;20058;-75
2021/04/08 09:24:45;;;;;;;6.38;2.47;;;7.90;72.60;;;;;;4788142;29;20043;-75
2021/04/08 09:27:12;;;;;;;4.78;1.80;;;7.80;72.30;;;;;;4786535;29;20594;-75
2021/04/08 09:29:48;;;;;;;4.45;1.80;;;7.70;72.20;;;;;;4810572;29;20039;-74
2021/04/08 09:32:31;;;;;;;5.22;2.33;;;7.80;72.90;;;;;;4803949;29;20071;-75
2021/04/08 09:35:04;;;;;;;5.07;1.90;;;8.10;72.90;;;;;;4787774;29;20063;-75
2021/04/08 09:37:46;;;;;;;5.20;2.25;;;8.20;72.20;;;;;;4772521;29;20529;-75
2021/04/08 09:40:21;;;;;;;2.53;1.70;;;8.30;69.90;;;;;;4803374;29;20042;-75
2021/04/08 09:42:56;;;;;;;4.38;1.70;;;8.40;69.20;;;;;;4795309;29;20096;-75
2021/04/08 09:45:24;;;;;;;3.75;1.55;;;8.30;69.20;;;;;;4802185;29;20051;-75
2021/04/08 09:48:23;;;;;;;4.13;2.13;;;8.10;69.80;;;;;;4787159;29;20055;-75
2021/04/08 09:51:02;;;;;;;4.90;2.08;;;8.10;68.30;;;;;;4782964;29;20059;-75
2021/04/08 09:53:38;;;;;;;2.80;1.50;;;8.20;68.60;;;;;;4772373;29;20055;-75
2021/04/08 09:56:06;;;;;;;3.22;1.55;;;8.30;67.70;;;;;;4784872;29;20059;-75
2021/04/08 09:58:35;;;;;;;3.33;1.67;;;8.40;66.90;;;;;;4789604;29;20122;-75
2021/04/08 10:01:07;;;;;;;3.28;1.35;;;8.50;66.50;;;;;;4785228;29;20124;-75
2021/04/08 10:03:38;;;;;;;6.20;1.23;;;8.90;63.90;;;;;;4781686;29;20054;-75
2021/04/08 10:06:21;;;;;;;4.07;2.05;;;9.30;63.90;;;;;;4787488;29;20419;-75
2021/04/08 10:08:48;;;;;;;2.40;1.40;;;9.50;61.10;;;;;;4788590;29;20390;-75
2021/04/08 10:11:28;;;;;;;2.55;1.00;;;9.50;60.70;;;;;;4811949;29;20031;-75
2021/04/08 10:13:56;;;;;;;8.52;1.80;;;9.20;60.30;;;;;;4770931;29;20415;-75
2021/04/08 10:16:23;;;;;;;6.35;1.30;;;9.20;62.10;;;;;;4779499;30;20124;-75
2021/04/08 10:19:01;;;;;;;1.77;1.13;;;9.20;63.40;;;;;;4802973;29;20403;-74
2021/04/08 10:21:30;;;;;;;5.90;1.77;;;9.10;64.00;;;;;;4807619;29;20062;-74
2021/04/08 10:23:59;;;;;;;3.05;1.50;;;9.20;65.20;;;;;;4790903;29;20058;-74
2021/04/08 10:26:31;;;;;;;3.10;1.58;;;8.90;64.20;;;;;;4790785;29;20051;-73
2021/04/08 10:29:01;;;;;;;3.10;1.02;;;8.70;65.20;;;;;;4790322;29;20142;-73
2021/04/08 10:31:37;;;;;;;2.53;1.08;;;8.60;65.60;;;;;;4789227;29;20210;-74
2021/04/08 10:34:05;;;;;;;2.88;1.20;;;8.80;64.90;;;;;;4803829;29;20081;-73
2021/04/08 10:36:36;;;;;;;2.28;1.00;;;8.90;62.90;;;;;;4805320;29;20070;-74
2021/04/08 10:39:08;;;;;;;2.20;1.00;;;9.40;59.90;;;;;;4805636;29;20116;-73
2021/04/08 10:41:36;;;;;;;2.45;1.25;;;9.60;58.10;;;;;;4788225;29;20116;-74
2021/04/08 10:44:39;;;;;;;4.50;1.27;;;9.90;58.20;;;;;;4788889;29;20050;-73
2021/04/08 10:47:09;;;;;;;4.20;1.40;;;;;;;;;;4769278;30;20082;-72
2021/04/08 10:49:57;;;;;;;8.57;0.60;;;9.70;57.60;;;;;;4754817;30;20547;-71
2021/04/08 10:52:26;;;;;;;3.88;1.00;;;9.00;61.70;;;;;;4763593;30;20044;-72
2021/04/08 10:54:58;;;;;;;3.55;1.13;;;8.30;64.90;;;;;;4750606;30;20062;-72
2021/04/08 10:57:26;;;;;;;6.50;1.48;;;7.90;66.50;;;;;;4760883;30;20062;-72
2021/04/08 10:59:53;;;;;;;5.53;0.52;;;;;;;;;;4769657;30;20046;-74
2021/04/08 11:02:28;;;;;;;2.58;0.30;;;;;;;;;;4754713;30;20064;-74
2021/04/08 11:04:58;;;;;;;6.20;0.50;;;8.00;80.40;;;;;;4765085;30;20063;-74
2021/04/08 11:07:25;;;;;;;3.28;0.68;;;8.00;67.90;;;;;;4751061;29;20116;-74
2021/04/08 11:10:06;;;;;;;1.60;0.40;;;7.80;63.90;;;;;;4763171;30;20471;-74
2021/04/08 11:12:32;;;;;;;2.10;0.60;;;7.90;64.40;;;;;;4764053;30;20051;-74
2021/04/08 11:15:00;;;;;;;3.05;0.47;;;8.00;65.50;;;;;;4749711;30;20055;-74
2021/04/08 11:17:28;;;;;;;2.80;0.95;;;8.10;66.40;;;;;;4765284;30;20066;-74
2021/04/08 11:19:57;;;;;;;6.20;1.50;;;7.80;68.80;;;;;;4769565;29;20429;-74
2021/04/08 11:22:32;;;;;;;4.90;1.15;;;7.20;71.70;;;;;;4801914;29;20050;-74
2021/04/08 11:25:00;;;;;;;4.40;0.90;;;6.70;75.30;;;;;;4785373;29;20066;-74
2021/04/08 11:27:29;;;;;;;1.73;0.57;;;6.30;78.60;;;;;;4798602;29;20054;-73
2021/04/08 11:29:57;;;;;;;2.90;0.55;;;5.90;82.60;;;;;;4780415;29;20042;-73
2021/04/08 11:32:24;;;;;;;6.60;0.98;;;5.80;86.80;;;;;;4787251;29;20051;-73
2021/04/08 11:34:57;;;;;;;10.82;1.50;;;5.60;87.70;;;;;;4786047;29;20093;-74
2021/04/08 11:37:38;;;;;;;5.50;1.02;;;5.70;90.00;;;;;;4785148;29;20054;-74
2021/04/08 11:40:07;;;;;;;8.10;1.58;;;5.90;86.80;;;;;;4778002;29;20062;-74
2021/04/08 11:42:40;;;;;;;2.80;0.68;;;6.30;85.00;;;;;;4779448;29;20112;-74
2021/04/08 11:45:21;;;;;;;9.05;2.28;;;;;;;;;;4795801;29;20047;-74
2021/04/08 11:47:56;;;;;;;4.60;1.08;;;7.20;76.90;;;;;;4794967;29;20407;-74
2021/04/08 11:50:48;;;;;;;8.65;2.00;;;7.90;89.60;;;;;;4788307;29;20400;-75
2021/04/08 11:53:31;;;;;;;10.15;1.42;;;8.20;78.30;;;;;;4794542;29;20108;-74
2021/04/08 11:55:58;;;;;;;10.05;1.88;;;8.10;76.40;;;;;;4790626;29;20453;-74
2021/04/08 11:58:36;;;;;;;13.10;2.53;;;7.60;78.00;;;;;;4805454;29;20058;-74
2021/04/08 12:01:21;;;;;;;6.93;1.40;;;7.30;78.70;;;;;;4790125;29;20780;-74
2021/04/08 12:03:50;;;;;;;7.50;1.35;;;7.10;79.20;;;;;;4783859;29;20051;-74
2021/04/08 12:06:16;;;;;;;6.22;0.82;;;6.90;77.80;;;;;;4799302;29;20055;-74
2021/04/08 12:08:44;;;;;;;4.07;0.52;;;7.00;75.70;;;;;;4789151;29;20051;-74
2021/04/08 12:11:14;;;;;;;4.90;0.70;;;7.00;73.40;;;;;;4800811;29;20043;-74
2021/04/08 12:13:43;;;;;;;5.97;1.08;;;7.00;71.70;;;;;;4780338;29;20045;-74
2021/04/08 12:16:23;;;;;;;4.68;1.20;;;7.00;72.40;;;;;;4801887;29;20844;-74
2021/04/08 12:18:50;;;;;;;1.63;0.32;;;7.20;71.90;;;;;;4797392;29;20050;-74
2021/04/08 12:21:19;;;;;;;2.05;0.47;;;7.40;71.00;;;;;;4795660;29;20074;-74
2021/04/08 12:23:47;;;;;;;6.75;1.30;;;8.10;77.90;;;;;;4782400;29;20154;-74
2021/04/08 12:26:34;;;;;;;3.45;0.70;;;8.50;66.60;;;;;;4766059;29;20047;-74
2021/04/08 12:29:01;;;;;;;1.40;0.22;;;8.80;65.60;;;;;;4797084;29;20058;-74
2021/04/08 12:31:28;;;;;;;1.95;0.35;;;9.60;65.30;;;;;;4770579;29;20099;-74
2021/04/08 12:33:55;;;;;;;1.92;0.30;;;10.70;65.70;;;;;;4764440;29;20134;-73
2021/04/08 12:36:21;;;;;;;1.48;0.30;;;11.50;60.30;;;;;;4780567;29;20509;-74
2021/04/08 12:38:48;;;;;;;2.60;0.47;;;;;;;;;;4767767;29;20047;-73
2021/04/08 12:41:16;;;;;;;1.13;0.40;;;11.00;91.00;;;;;;4779875;29;20043;-74
2021/04/08 12:43:43;;;;;;;1.85;0.40;;;10.50;61.60;;;;;;4781018;29;20050;-74
2021/04/08 12:46:09;;;;;;;1.55;0.45;;;10.40;61.40;;;;;;4778939;29;20078;-75
2021/04/08 12:48:39;;;;;;;3.92;1.10;;;10.10;63.00;;;;;;4790236;29;20053;-74
2021/04/08 12:51:06;;;;;;;2.38;0.45;;;10.00;61.90;;;;;;4792571;29;20035;-74
2021/04/08 12:53:32;;;;;;;1.55;0.30;;;9.70;64.40;;;;;;4783602;29;20107;-74
2021/04/08 12:55:59;;;;;;;0.98;0.20;;;9.60;65.70;;;;;;4781192;29;20050;-74
2021/04/08 12:58:25;;;;;;;1.25;0.40;;;9.60;65.80;;;;;;4780386;29;20069;-74
2021/04/08 13:00:54;;;;;;;2.80;0.82;;;9.30;66.10;;;;;;4770603;29;20057;-73
2021/04/08 13:03:21;;;;;;;3.28;0.68;;;9.00;68.10;;;;;;4793489;29;20137;-74
2021/04/08 13:05:48;;;;;;;4.03;0.40;;;8.80;69.30;;;;;;4778625;29;20051;-73
2021/04/08 13:08:15;;;;;;;4.45;1.20;;;8.50;68.20;;;;;;4778839;29;20084;-73
2021/04/08 13:10:41;;;;;;;4.07;0.40;;;8.50;73.20;;;;;;4798185;29;20058;-73
2021/04/08 13:13:08;;;;;;;3.22;0.30;;;9.30;74.10;;;;;;4781612;29;20054;-74
2021/04/08 13:15:35;;;;;;;0.50;0.10;;;10.40;71.90;;;;;;4779106;29;20044;-74